Time;durP1;ratioP1;P1;durP2;ratioP2;P2;SDS_P1;SDS_P2;PMS_P1;PMS_P2;Temp;Humidity;BMP_temperature;BMP_pressure;BME280_temperature;BME280_humidity;BME280_pressure;Samples;Min_cycle;Max_cycle;Signal;HPM_P1;HPM_P2
2023/07/10 00:00:35;;;;;;;11.02;2.30;;;16.40;99.90;;;15.94;100.00;101856.84;4166865;28;20079;-74
2023/07/10 00:02:36;;;;;;;12.73;3.45;;;16.40;99.90;;;15.93;100.00;101865.81;4168378;28;20037;-74
2023/07/10 00:04:37;;;;;;;13.23;3.05;;;16.40;99.90;;;15.94;100.00;101870.16;4167220;28;20022;-74
2023/07/10 00:06:37;;;;;;;9.43;3.08;;;16.40;99.90;;;15.89;100.00;101862.63;4174852;28;20036;-74
2023/07/10 00:08:39;;;;;;;10.55;2.60;;;16.40;99.90;;;15.89;100.00;101864.47;4168348;28;20030;-74
2023/07/10 00:10:40;;;;;;;11.00;3.28;;;16.40;99.90;;;15.85;100.00;101871.13;4168308;28;20112;-75
2023/07/10 00:12:43;;;;;;;7.18;2.47;;;16.40;99.90;;;15.82;100.00;101868.78;4168552;28;20432;-74
2023/07/10 00:14:44;;;;;;;9.77;2.90;;;16.30;99.90;;;15.77;100.00;101863.94;4167282;28;20021;-74
2023/07/10 00:16:45;;;;;;;15.95;3.17;;;16.30;99.90;;;15.73;100.00;101865.28;4168394;28;20024;-74
2023/07/10 00:18:46;;;;;;;10.88;2.30;;;16.30;99.90;;;15.71;100.00;101861.94;4168282;28;20447;-74
2023/07/10 00:20:48;;;;;;;7.30;2.50;;;16.30;99.90;;;15.68;100.00;101864.09;4168021;28;20041;-74
2023/07/10 00:22:49;;;;;;;8.60;2.08;;;16.20;99.90;;;15.65;100.00;101861.78;4167272;28;20424;-74
2023/07/10 00:24:49;;;;;;;8.38;2.33;;;16.20;99.90;;;15.62;100.00;101867.41;4168332;28;20048;-75
2023/07/10 00:26:50;;;;;;;7.60;2.67;;;16.20;99.90;;;15.60;100.00;101869.38;4167025;28;20029;-74
2023/07/10 00:28:54;;;;;;;8.73;2.90;;;16.10;99.90;;;15.57;100.00;101857.25;4168330;28;20030;-74
2023/07/10 00:30:55;;;;;;;6.70;2.58;;;16.10;99.90;;;15.56;100.00;101858.22;4167125;28;20026;-74
2023/07/10 00:32:56;;;;;;;9.07;2.55;;;16.10;99.90;;;15.56;100.00;101858.22;4167002;28;20049;-74
2023/07/10 00:34:57;;;;;;;8.30;2.30;;;16.10;99.90;;;15.54;100.00;101860.22;4168129;28;20033;-74
2023/07/10 00:36:58;;;;;;;6.43;2.20;;;16.10;99.90;;;15.54;100.00;101865.53;4168089;28;20489;-75
2023/07/10 00:39:23;;;;;;;6.82;2.50;;;16.00;99.90;;;15.44;100.00;101849.69;4168239;28;20029;-75
2023/07/10 00:41:30;;;;;;;11.27;2.90;;;16.00;99.90;;;15.49;100.00;101866.03;4167184;28;20394;-74
2023/07/10 00:43:47;;;;;;;9.40;3.55;;;16.00;99.90;;;15.47;100.00;101865.34;4167140;28;20055;-74
2023/07/10 00:45:50;;;;;;;11.45;2.38;;;16.00;99.90;;;15.45;100.00;101861.16;4168160;28;20519;-75
2023/07/10 00:48:29;;;;;;;10.88;3.05;;;16.00;99.90;;;15.37;100.00;101863.78;4166978;28;20483;-74
2023/07/10 00:50:41;;;;;;;5.97;2.17;;;15.90;99.90;;;15.33;100.00;101859.75;4164057;28;20034;-75
2023/07/10 00:52:48;;;;;;;4.40;2.22;;;15.90;99.90;;;15.28;100.00;101859.41;4166910;28;20036;-74
2023/07/10 00:54:53;;;;;;;8.25;3.20;;;15.90;99.90;;;15.26;100.00;101864.06;4168456;28;20061;-75
2023/07/10 00:56:56;;;;;;;7.88;2.75;;;15.80;99.90;;;15.21;100.00;101853.06;4171056;28;20507;-74
2023/07/10 00:58:57;;;;;;;7.70;2.35;;;15.80;99.90;;;15.23;100.00;101861.72;4169810;28;20112;-75
2023/07/10 01:01:23;;;;;;;8.60;2.28;;;15.80;99.90;;;15.20;100.00;101857.53;4170850;28;20037;-74
2023/07/10 01:03:24;;;;;;;8.88;2.42;;;15.80;99.90;;;15.18;100.00;101854.22;4169816;28;20048;-75
2023/07/10 01:05:27;;;;;;;6.63;2.75;;;15.70;99.90;;;15.17;100.00;101851.72;4169625;28;20029;-74
2023/07/10 01:07:36;;;;;;;9.90;3.13;;;15.70;99.90;;;15.16;100.00;101850.91;4169543;28;20543;-74
2023/07/10 01:09:41;;;;;;;16.13;3.45;;;15.70;99.90;;;15.18;100.00;101856.88;4169869;28;20032;-74
2023/07/10 01:11:43;;;;;;;10.43;2.78;;;15.70;99.90;;;15.15;100.00;101854.53;4153466;28;20080;-74
2023/07/10 01:13:48;;;;;;;9.40;3.35;;;15.70;99.90;;;15.10;100.00;101846.22;4170819;28;20104;-74
2023/07/10 01:15:49;;;;;;;6.00;2.42;;;15.70;99.90;;;15.07;100.00;101857.16;4153210;28;20044;-74
2023/07/10 01:17:50;;;;;;;6.97;2.90;;;15.70;99.90;;;15.07;100.00;101853.66;4170720;28;20038;-75
2023/07/10 01:20:02;;;;;;;8.50;2.72;;;15.60;99.90;;;15.04;100.00;101846.00;4169357;28;20022;-75
2023/07/10 01:22:09;;;;;;;9.07;2.55;;;15.60;99.90;;;15.02;100.00;101854.16;4169076;28;20033;-75
2023/07/10 01:24:10;;;;;;;4.63;2.72;;;15.60;99.90;;;14.95;100.00;101853.94;4169645;28;20029;-75
2023/07/10 01:26:11;;;;;;;6.57;2.83;;;15.50;99.90;;;14.95;100.00;101851.28;4169581;28;20584;-74
2023/07/10 01:28:17;;;;;;;7.85;3.30;;;15.50;99.90;;;14.93;100.00;101849.78;4170531;28;20062;-75
2023/07/10 01:30:30;;;;;;;10.50;3.33;;;15.50;99.90;;;14.92;100.00;101850.75;4170409;28;20057;-74
2023/07/10 01:32:31;;;;;;;7.43;2.95;;;15.40;99.90;;;14.84;100.00;101843.56;4169399;28;20468;-75
2023/07/10 01:34:53;;;;;;;9.90;2.72;;;15.40;99.90;;;14.85;100.00;101839.94;4169153;28;20056;-74
2023/07/10 01:36:55;;;;;;;8.45;2.53;;;15.40;99.90;;;14.90;100.00;101837.63;4170093;28;20026;-74
2023/07/10 01:39:10;;;;;;;6.75;2.10;;;15.40;99.90;;;14.90;100.00;101836.81;4169242;28;20521;-74
2023/07/10 01:41:36;;;;;;;10.50;3.17;;;15.40;99.90;;;14.89;100.00;101840.44;4168994;28;20033;-74
2023/07/10 01:43:37;;;;;;;11.32;3.20;;;15.40;99.90;;;14.87;100.00;101850.41;4159482;28;20030;-74
2023/07/10 01:45:47;;;;;;;9.60;3.30;;;15.40;99.90;;;14.85;100.00;101834.63;4169176;28;20029;-74
2023/07/10 01:47:52;;;;;;;6.75;2.95;;;15.40;99.90;;;14.84;100.00;101837.44;4169032;28;20034;-74
2023/07/10 01:49:58;;;;;;;9.82;3.35;;;15.40;99.90;;;14.87;100.00;101839.78;4169274;28;20100;-74
2023/07/10 01:52:03;;;;;;;10.48;3.72;;;15.40;99.90;;;14.89;100.00;101843.94;4170021;28;20473;-74
2023/07/10 01:54:05;;;;;;;11.68;3.28;;;15.40;99.90;;;14.90;100.00;101845.59;4169096;28;20021;-74
2023/07/10 01:56:06;;;;;;;8.93;3.13;;;15.40;99.90;;;14.93;100.00;101850.59;4168963;28;20064;-74
2023/07/10 01:58:07;;;;;;;13.40;4.13;;;15.40;99.90;;;14.95;100.00;101853.94;4152564;28;20394;-74
2023/07/10 02:00:09;;;;;;;8.18;2.88;;;15.40;99.90;;;14.93;100.00;101852.44;4169983;28;20068;-74
2023/07/10 02:02:10;;;;;;;10.73;3.03;;;15.40;99.90;;;14.91;100.00;101849.94;4170345;28;20022;-74
2023/07/10 02:04:11;;;;;;;8.90;2.70;;;15.50;99.90;;;14.92;100.00;101848.09;4169897;28;20056;-74
2023/07/10 02:06:12;;;;;;;12.15;2.85;;;15.40;99.90;;;14.92;100.00;101845.44;4168978;28;20026;-74
2023/07/10 02:08:13;;;;;;;9.45;2.90;;;15.50;99.90;;;14.91;100.00;101844.59;4169912;28;20044;-74
2023/07/10 02:10:14;;;;;;;6.80;2.35;;;15.40;99.90;;;14.89;100.00;101833.31;4168586;28;20033;-74
2023/07/10 02:12:15;;;;;;;9.52;3.15;;;15.40;99.90;;;14.91;100.00;101841.94;4168539;28;20117;-74
2023/07/10 02:14:16;;;;;;;12.05;2.65;;;15.40;99.90;;;14.91;100.00;101835.81;4170135;28;20029;-74
2023/07/10 02:16:17;;;;;;;9.77;2.90;;;15.40;99.90;;;14.93;100.00;101839.97;4168406;28;20029;-74
2023/07/10 02:18:18;;;;;;;6.40;2.72;;;15.50;99.90;;;14.95;100.00;101838.00;4164131;28;20106;-74
2023/07/10 02:20:19;;;;;;;7.07;2.88;;;15.50;99.90;;;14.96;100.00;101834.34;4169240;28;20416;-74
2023/07/10 02:22:20;;;;;;;8.70;3.50;;;15.50;99.90;;;14.94;100.00;101832.84;4169869;28;20038;-74
2023/07/10 02:24:20;;;;;;;10.02;2.97;;;15.50;99.90;;;14.99;100.00;101835.88;4168628;28;20037;-74
2023/07/10 02:26:21;;;;;;;10.20;3.38;;;15.50;99.90;;;14.99;100.00;101838.53;4169719;28;20037;-74
2023/07/10 02:28:22;;;;;;;7.80;2.80;;;15.50;99.90;;;15.00;100.00;101845.47;4169412;28;20404;-74
2023/07/10 02:30:23;;;;;;;7.65;2.78;;;15.50;99.90;;;14.97;100.00;101840.50;4169642;28;20055;-74
2023/07/10 02:32:24;;;;;;;4.88;3.00;;;15.50;99.90;;;15.00;100.00;101832.19;4168385;28;20021;-74
2023/07/10 02:34:25;;;;;;;13.15;3.22;;;15.50;99.90;;;15.00;100.00;101829.53;4168608;28;20025;-74
2023/07/10 02:36:29;;;;;;;8.80;2.85;;;15.50;99.90;;;15.03;100.00;101831.88;4168293;28;20469;-75
2023/07/10 02:38:30;;;;;;;;;;;15.50;99.90;;;15.01;100.00;101835.69;4168835;28;20053;-75
2023/07/10 02:40:31;;;;;;;8.68;3.22;;;15.60;99.90;;;15.03;100.00;101831.03;4169456;28;19916;-74
2023/07/10 02:42:32;;;;;;;7.70;2.40;;;15.60;99.90;;;15.05;100.00;101831.75;4169359;28;20484;-74
2023/07/10 02:44:33;;;;;;;7.57;2.40;;;15.60;99.90;;;15.04;100.00;101828.25;4169538;28;20036;-74
2023/07/10 02:46:33;;;;;;;10.05;3.40;;;15.60;99.90;;;15.07;100.00;101829.75;4168218;28;20382;-74
2023/07/10 02:48:34;;;;;;;7.93;3.22;;;15.60;99.90;;;15.01;100.00;101814.44;4169304;28;20029;-74
2023/07/10 02:50:35;;;;;;;7.35;2.92;;;15.50;99.90;;;15.05;100.00;101832.59;4167778;28;20025;-74
2023/07/10 02:52:36;;;;;;;10.02;2.55;;;15.60;99.90;;;15.02;100.00;101819.59;4169206;28;20393;-74
2023/07/10 02:54:37;;;;;;;13.98;3.50;;;15.50;99.90;;;15.01;100.00;101820.59;4168083;28;20029;-74
2023/07/10 02:56:38;;;;;;;7.80;3.08;;;15.50;99.90;;;15.03;100.00;101828.38;4168081;28;20033;-74
2023/07/10 02:58:39;;;;;;;12.90;3.30;;;15.50;99.90;;;15.01;100.00;101828.56;4169167;28;20030;-74
2023/07/10 03:00:40;;;;;;;11.30;3.28;;;15.50;99.90;;;15.02;100.00;101826.75;4169176;28;20079;-74
2023/07/10 03:02:41;;;;;;;5.53;3.33;;;15.50;99.90;;;14.98;100.00;101826.22;4168887;28;20033;-74
2023/07/10 03:04:42;;;;;;;8.98;2.83;;;15.50;99.90;;;14.99;100.00;101832.38;4169087;28;20076;-74
2023/07/10 03:06:45;;;;;;;12.80;2.80;;;15.50;99.90;;;14.94;100.00;101819.53;4168940;28;20037;-74
2023/07/10 03:08:47;;;;;;;8.03;2.70;;;15.50;99.90;;;14.95;100.00;101822.06;4169044;28;20025;-74
2023/07/10 03:10:49;;;;;;;12.85;2.70;;;15.40;99.90;;;14.90;100.00;101808.41;4167713;28;20260;-74
2023/07/10 03:12:49;;;;;;;7.70;3.00;;;15.50;99.90;;;14.87;100.00;101805.25;4167883;28;20037;-74
2023/07/10 03:14:50;;;;;;;8.27;2.55;;;15.40;99.90;;;14.81;100.00;101814.66;4167737;28;20026;-74
2023/07/10 03:16:52;;;;;;;8.27;2.25;;;15.40;99.90;;;14.78;100.00;101812.31;4167630;28;20034;-74
2023/07/10 03:18:52;;;;;;;7.57;2.35;;;15.30;99.90;;;14.78;100.00;101814.97;4167587;28;20033;-74
2023/07/10 03:20:54;;;;;;;9.95;3.30;;;15.30;99.90;;;14.83;100.00;101818.00;4167242;28;20049;-74
2023/07/10 03:22:54;;;;;;;6.60;3.10;;;15.30;99.90;;;14.83;100.00;101817.16;4162575;28;20040;-74
2023/07/10 03:24:57;;;;;;;12.60;2.78;;;15.30;99.90;;;14.82;100.00;101815.50;4167784;28;20144;-74
2023/07/10 03:26:58;;;;;;;6.13;2.80;;;15.30;99.90;;;14.81;100.00;101814.66;4167459;28;20022;-74
2023/07/10 03:29:17;;;;;;;7.43;2.38;;;15.30;99.90;;;14.80;100.00;101820.97;4168807;28;20037;-74
2023/07/10 03:31:17;;;;;;;9.75;3.83;;;15.30;99.90;;;14.74;100.00;101808.31;4168754;28;20076;-74
2023/07/10 03:33:19;;;;;;;8.98;2.50;;;15.30;99.90;;;14.72;100.00;101814.78;4168666;28;20033;-74
2023/07/10 03:35:20;;;;;;;8.63;3.03;;;15.20;99.90;;;14.71;100.00;101816.59;4150841;28;20034;-74
2023/07/10 03:37:21;;;;;;;8.82;3.22;;;15.20;99.90;;;14.68;100.00;101816.06;4168809;28;20037;-74
2023/07/10 03:39:21;;;;;;;7.25;2.22;;;15.20;99.90;;;14.66;100.00;101821.56;4167514;28;20489;-74
2023/07/10 03:41:23;;;;;;;9.30;2.10;;;15.20;99.90;;;14.69;100.00;101820.41;4167388;28;20029;-74
2023/07/10 03:43:26;;;;;;;7.35;2.78;;;15.20;99.90;;;14.65;100.00;101808.44;4168863;28;20072;-74
2023/07/10 03:45:30;;;;;;;10.32;3.58;;;15.20;99.90;;;14.69;100.00;101825.72;4168669;28;20808;-74
2023/07/10 03:47:31;;;;;;;5.70;2.40;;;15.20;99.90;;;14.66;100.00;101818.06;4183847;28;20035;-74
2023/07/10 03:49:33;;;;;;;8.60;2.58;;;15.20;99.90;;;14.63;100.00;101815.72;4167155;28;20172;-74
2023/07/10 03:51:34;;;;;;;13.25;3.95;;;15.20;99.90;;;14.61;100.00;101817.69;4168430;28;20033;-74
2023/07/10 03:53:35;;;;;;;7.93;3.08;;;15.10;99.90;;;14.57;100.00;101811.03;4167356;28;20026;-74
2023/07/10 03:55:36;;;;;;;7.55;2.75;;;15.10;99.90;;;14.60;100.00;101822.19;4168582;28;20032;-74
2023/07/10 03:57:36;;;;;;;7.03;2.35;;;15.10;99.90;;;14.57;100.00;101821.66;4168528;28;20029;-74
2023/07/10 03:59:37;;;;;;;10.43;3.15;;;15.10;99.90;;;14.57;100.00;101816.34;4167548;28;20025;-74
2023/07/10 04:01:39;;;;;;;6.80;2.60;;;15.10;99.90;;;14.56;100.00;101817.31;4168327;28;20030;-74
2023/07/10 04:03:40;;;;;;;5.93;2.65;;;15.10;99.90;;;14.57;100.00;101824.31;4167490;28;20493;-74
2023/07/10 04:05:42;;;;;;;10.55;2.97;;;15.10;99.90;;;14.59;100.00;101835.59;4167005;28;20401;-74
2023/07/10 04:07:43;;;;;;;7.28;2.72;;;15.10;99.90;;;14.55;100.00;101835.06;4167233;28;20022;-74
2023/07/10 04:09:44;;;;;;;3.63;2.20;;;15.10;99.90;;;14.48;100.00;101828.72;4168502;28;20029;-74
2023/07/10 04:11:45;;;;;;;6.00;2.58;;;15.00;99.90;;;14.46;100.00;101824.53;4168470;28;20029;-74
2023/07/10 04:13:48;;;;;;;6.97;2.13;;;15.00;99.90;;;14.42;100.00;101833.81;4168310;28;20389;-74
2023/07/10 04:16:07;;;;;;;8.80;2.33;;;14.90;99.90;;;14.39;100.00;101830.47;4167512;28;20029;-74
2023/07/10 04:18:08;;;;;;;4.43;2.17;;;14.90;99.90;;;14.29;100.00;101835.03;4168283;28;20036;-74
2023/07/10 04:20:09;;;;;;;6.68;2.40;;;14.90;99.90;;;14.24;100.00;101844.44;4168272;28;20050;-74
2023/07/10 04:22:10;;;;;;;6.68;2.17;;;14.80;99.90;;;14.20;100.00;101840.41;4166907;28;20041;-74
2023/07/10 04:24:12;;;;;;;4.88;2.58;;;14.80;99.90;;;14.14;100.00;101825.09;4167049;28;20021;-74
2023/07/10 04:26:21;;;;;;;3.95;2.22;;;14.70;99.90;;;14.19;100.00;101833.41;4167332;28;20029;-74
2023/07/10 04:28:22;;;;;;;4.15;2.05;;;14.70;99.90;;;14.17;100.00;101838.91;4168200;28;20503;-74
2023/07/10 04:30:24;;;;;;;7.13;2.47;;;14.70;99.90;;;14.12;100.00;101837.69;4169705;28;20029;-74
2023/07/10 04:32:25;;;;;;;5.88;2.10;;;14.70;99.90;;;14.08;100.00;101834.50;4170329;28;20386;-74
2023/07/10 04:34:26;;;;;;;7.03;2.75;;;14.60;99.90;;;14.03;100.00;101823.53;4170064;28;20029;-74
2023/07/10 04:36:27;;;;;;;4.40;1.60;;;14.60;99.90;;;14.08;100.00;101838.97;4169835;28;20021;-74
2023/07/10 04:38:29;;;;;;;5.65;2.40;;;14.60;99.90;;;14.08;100.00;101845.09;4171380;28;20048;-74
2023/07/10 04:40:29;;;;;;;7.15;2.63;;;14.60;99.90;;;14.04;100.00;101837.59;4171367;28;20087;-74
2023/07/10 04:42:30;;;;;;;4.20;1.77;;;14.60;99.90;;;14.07;100.00;101842.59;4153604;28;20030;-74
2023/07/10 04:44:31;;;;;;;3.50;2.17;;;14.60;99.90;;;14.05;100.00;101848.06;4171332;28;20087;-74
2023/07/10 04:46:32;;;;;;;5.15;2.42;;;14.60;99.90;;;14.05;100.00;101841.91;4157149;28;20037;-74
2023/07/10 04:48:33;;;;;;;4.82;2.15;;;14.60;99.90;;;14.06;100.00;101846.25;4171086;28;20021;-74
2023/07/10 04:50:34;;;;;;;3.40;2.03;;;14.60;99.90;;;14.05;100.00;101839.28;4169749;28;20025;-74
2023/07/10 04:52:35;;;;;;;10.70;3.10;;;14.60;99.90;;;14.12;100.00;101841.19;4169861;28;20020;-74
2023/07/10 04:54:36;;;;;;;4.22;1.88;;;14.60;99.90;;;14.18;100.00;101850.34;4170810;28;20017;-74
2023/07/10 04:56:37;;;;;;;5.43;2.25;;;14.60;99.90;;;14.19;100.00;101850.19;4171213;28;20396;-74
2023/07/10 04:58:53;;;;;;;4.20;2.10;;;14.70;99.90;;;14.25;100.00;101854.03;4171040;28;20648;-74
2023/07/10 05:01:00;;;;;;;7.15;2.15;;;14.70;99.90;;;14.27;100.00;101844.97;4170949;28;20085;-74
2023/07/10 05:03:02;;;;;;;3.78;2.03;;;14.80;99.90;;;14.29;100.00;101835.03;4170049;28;20029;-74
2023/07/10 05:05:04;;;;;;;6.47;2.10;;;14.80;99.90;;;14.32;100.00;101834.75;4171047;28;20547;-74
2023/07/10 05:07:05;;;;;;;3.95;1.90;;;14.80;99.90;;;14.36;100.00;101836.13;4169376;28;20038;-74
2023/07/10 05:09:06;;;;;;;4.65;1.77;;;14.80;99.90;;;14.41;100.00;101843.59;4186019;28;20114;-74
2023/07/10 05:11:07;;;;;;;4.93;2.40;;;14.90;99.90;;;14.44;100.00;101839.81;4171073;28;20022;-74
2023/07/10 05:13:07;;;;;;;7.20;2.30;;;14.90;99.90;;;14.45;100.00;101841.47;4169558;28;20057;-74
2023/07/10 05:15:09;;;;;;;4.78;2.63;;;14.90;99.90;;;14.46;100.00;101835.16;4147775;28;20029;-74
2023/07/10 05:17:10;;;;;;;3.75;2.50;;;14.90;99.90;;;14.56;100.00;101836.75;4169457;28;20029;-74
2023/07/10 05:19:11;;;;;;;9.13;3.65;;;15.00;99.90;;;14.66;100.00;101852.59;4169584;28;20052;-74
2023/07/10 05:21:12;;;;;;;7.72;4.20;;;15.10;99.90;;;14.79;100.00;101847.69;4170244;28;20045;-74
2023/07/10 05:23:14;;;;;;;7.65;4.90;;;15.20;99.90;;;14.87;100.00;101851.22;4170562;28;20524;-74
2023/07/10 05:25:15;;;;;;;9.45;4.40;;;15.30;99.90;;;15.00;100.00;101850.81;4169369;28;20420;-74
2023/07/10 05:27:16;;;;;;;8.30;4.78;;;15.40;99.90;;;15.09;100.00;101857.00;4170655;28;20041;-74
2023/07/10 05:29:16;;;;;;;8.73;4.75;;;15.50;99.90;;;15.13;100.00;101845.91;4170526;28;20033;-74
2023/07/10 05:31:17;;;;;;;7.03;4.28;;;15.60;99.90;;;15.17;100.00;101841.09;4169300;28;20026;-74
2023/07/10 05:33:18;;;;;;;7.15;4.38;;;15.60;99.90;;;15.23;100.00;101846.59;4170471;28;20021;-74
2023/07/10 05:35:20;;;;;;;6.95;4.50;;;15.70;99.90;;;15.30;100.00;101855.59;4170276;28;20026;-74
2023/07/10 05:37:20;;;;;;;6.72;4.47;;;15.70;99.90;;;15.36;100.00;101847.00;4170525;28;20057;-74
2023/07/10 05:39:22;;;;;;;5.70;4.35;;;15.80;99.90;;;15.42;100.00;101846.34;4170594;28;20026;-74
2023/07/10 05:41:24;;;;;;;5.57;4.25;;;15.80;99.90;;;15.49;100.00;101851.91;4169163;28;20048;-74
2023/07/10 05:43:25;;;;;;;9.93;4.70;;;15.90;99.90;;;15.55;100.00;101847.75;4170417;28;20060;-74
2023/07/10 05:45:25;;;;;;;7.78;5.10;;;15.90;99.90;;;15.64;100.00;101849.44;4168899;28;20063;-74
2023/07/10 05:47:26;;;;;;;6.82;4.35;;;16.00;99.90;;;15.70;100.00;101849.63;4170287;28;20025;-74
2023/07/10 05:49:27;;;;;;;9.93;4.63;;;16.10;99.90;;;15.77;100.00;101855.97;4170083;28;20030;-74
2023/07/10 05:51:28;;;;;;;10.48;4.45;;;16.10;99.90;;;15.84;100.00;101842.84;4169996;28;20029;-74
2023/07/10 05:53:29;;;;;;;6.80;4.03;;;16.20;99.90;;;15.92;100.00;101849.00;4168913;28;20389;-74
2023/07/10 05:55:30;;;;;;;5.80;3.53;;;16.30;99.90;;;16.03;100.00;101851.38;4168979;28;20029;-74
2023/07/10 05:57:31;;;;;;;6.13;4.35;;;16.40;99.90;;;16.10;100.00;101838.22;4170101;28;20370;-75
2023/07/10 05:59:32;;;;;;;6.30;3.75;;;16.40;99.90;;;16.17;100.00;101841.06;4169667;28;20413;-75
2023/07/10 06:01:33;;;;;;;6.20;3.53;;;16.50;99.90;;;16.26;100.00;101845.38;4169989;28;20028;-74
2023/07/10 06:03:34;;;;;;;9.38;4.55;;;16.60;99.90;;;16.34;100.00;101837.38;4168256;28;20029;-75
2023/07/10 06:05:35;;;;;;;5.82;4.15;;;16.70;99.90;;;16.44;100.00;101836.25;4168744;28;20077;-75
2023/07/10 06:07:36;;;;;;;7.15;3.58;;;16.70;99.90;;;16.51;100.00;101845.22;4169997;28;20053;-75
2023/07/10 06:09:36;;;;;;;6.38;4.00;;;16.80;99.90;;;16.53;100.00;101829.06;4169936;28;20060;-75
2023/07/10 06:11:37;;;;;;;5.28;3.70;;;16.90;99.90;;;16.64;100.00;101830.56;4169808;28;20030;-75
2023/07/10 06:13:38;;;;;;;6.50;3.65;;;16.90;99.90;;;16.69;100.00;101828.25;4169831;28;20555;-75
2023/07/10 06:15:46;;;;;;;6.93;3.65;;;17.00;99.90;;;16.78;100.00;101827.22;4152426;28;20034;-75
2023/07/10 06:17:47;;;;;;;6.85;4.07;;;17.10;99.90;;;16.85;100.00;101831.69;4158982;28;20021;-76
2023/07/10 06:19:47;;;;;;;7.43;4.00;;;17.20;99.90;;;16.93;100.00;101833.53;4169570;28;20504;-75
2023/07/10 06:21:48;;;;;;;6.45;3.35;;;17.20;99.90;;;17.00;100.00;101832.66;4169338;28;20030;-75
2023/07/10 06:23:49;;;;;;;5.88;3.47;;;17.30;99.90;;;17.07;100.00;101830.16;4184840;28;20082;-74
2023/07/10 06:25:51;;;;;;;7.20;3.28;;;17.40;99.90;;;17.15;100.00;101833.63;4168414;28;20025;-74
2023/07/10 06:27:52;;;;;;;7.20;3.35;;;17.40;99.90;;;17.22;100.00;101828.44;4168435;28;20511;-74
2023/07/10 06:29:53;;;;;;;5.85;2.90;;;17.50;99.90;;;17.31;100.00;101824.72;4168238;28;20017;-75
2023/07/10 06:31:54;;;;;;;3.33;2.50;;;17.60;99.90;;;17.35;100.00;101822.53;4169457;28;20481;-74
2023/07/10 06:33:54;;;;;;;4.90;2.47;;;17.60;99.90;;;17.43;100.00;101836.66;4169559;28;20491;-75
2023/07/10 06:35:56;;;;;;;6.43;2.97;;;17.70;99.90;;;17.54;100.00;101833.63;4169345;28;20115;-75
2023/07/10 06:37:56;;;;;;;8.73;3.17;;;17.80;99.90;;;17.55;100.00;101813.97;4169407;28;20021;-76
2023/07/10 06:40:16;;;;;;;8.75;3.55;;;17.90;99.90;;;17.69;100.00;101834.56;4168157;28;20049;-76
2023/07/10 06:42:17;;;;;;;6.25;3.35;;;18.00;99.90;;;17.81;100.00;101836.81;4169511;28;20022;-75
2023/07/10 06:44:17;;;;;;;8.85;4.63;;;18.00;99.90;;;17.86;100.00;101840.63;4168026;28;20021;-75
2023/07/10 06:46:18;;;;;;;4.47;2.45;;;18.10;99.90;;;17.95;100.00;101844.91;4166476;28;20017;-76
2023/07/10 06:48:19;;;;;;;6.38;2.40;;;18.10;99.90;;;18.00;100.00;101828.34;4167847;28;20037;-76
2023/07/10 06:50:20;;;;;;;7.95;3.20;;;18.20;99.90;;;18.10;100.00;101844.94;4158512;28;20030;-74
2023/07/10 06:52:21;;;;;;;9.30;4.15;;;18.30;99.90;;;18.15;100.00;101843.44;4168883;28;20032;-74
2023/07/10 06:54:22;;;;;;;7.72;2.60;;;18.30;99.90;;;18.20;100.00;101841.06;4169305;28;20029;-74
2023/07/10 06:56:24;;;;;;;3.40;1.98;;;18.40;99.90;;;18.33;100.00;101845.78;4169338;28;20025;-74
2023/07/10 06:58:26;;;;;;;5.85;3.25;;;18.50;99.90;;;18.43;100.00;101846.34;4168002;28;20026;-74
2023/07/10 07:00:27;;;;;;;7.10;2.78;;;18.60;99.90;;;18.55;100.00;101834.25;4169123;28;20562;-74
2023/07/10 07:02:28;;;;;;;4.75;2.55;;;18.70;99.90;;;18.63;100.00;101839.53;4169090;28;20029;-75
2023/07/10 07:04:29;;;;;;;4.50;1.88;;;18.70;99.90;;;18.72;100.00;101840.28;4169218;28;20033;-74
2023/07/10 07:06:30;;;;;;;3.95;1.90;;;18.80;99.90;;;18.84;100.00;101838.00;4168831;28;20036;-74
2023/07/10 07:08:31;;;;;;;10.43;3.58;;;18.90;99.90;;;18.94;100.00;101843.88;4167712;28;20033;-74
2023/07/10 07:10:32;;;;;;;5.93;2.10;;;19.10;99.90;;;19.00;100.00;101837.81;4168878;28;20075;-75
2023/07/10 07:12:34;;;;;;;8.40;2.70;;;19.10;99.90;;;19.08;100.00;101840.41;4167648;28;20025;-74
2023/07/10 07:14:35;;;;;;;5.00;2.53;;;19.20;99.90;;;19.21;100.00;101837.88;4167803;28;20414;-74
2023/07/10 07:16:36;;;;;;;5.85;3.10;;;19.30;99.90;;;19.23;100.00;101831.34;4168950;28;20037;-76
2023/07/10 07:18:36;;;;;;;6.30;3.20;;;19.40;99.90;;;19.33;100.00;101839.06;4167695;28;20033;-76
2023/07/10 07:20:38;;;;;;;6.35;2.20;;;19.50;99.90;;;19.40;100.00;101840.03;4168377;28;20526;-75
2023/07/10 07:22:39;;;;;;;8.25;2.75;;;19.50;99.90;;;19.41;100.00;101831.00;4167677;28;20021;-76
2023/07/10 07:24:40;;;;;;;7.95;2.15;;;19.60;99.90;;;19.54;100.00;101849.03;4167815;28;20064;-75
2023/07/10 07:26:41;;;;;;;6.28;1.90;;;19.70;99.90;;;19.63;100.00;101846.06;4167753;28;20055;-76
2023/07/10 07:28:44;;;;;;;7.35;2.63;;;19.80;99.90;;;19.79;100.00;101845.84;4168596;28;20107;-76
2023/07/10 07:30:48;;;;;;;6.93;2.37;;;19.90;99.90;;;19.85;100.00;101837.06;4167149;28;20021;-75
2023/07/10 07:32:49;;;;;;;5.97;2.33;;;19.90;99.90;;;19.99;100.00;101846.06;4145057;28;20022;-76
2023/07/10 07:34:50;;;;;;;8.20;2.70;;;20.10;99.90;;;20.12;100.00;101834.66;4168788;28;20108;-75
2023/07/10 07:36:52;;;;;;;10.32;3.42;;;20.20;99.90;;;20.20;100.00;101832.66;4150898;28;20108;-75
2023/07/10 07:38:53;;;;;;;9.63;3.00;;;20.30;99.90;;;20.27;100.00;101827.41;4168020;28;20065;-76
2023/07/10 07:40:58;;;;;;;6.72;3.08;;;20.40;99.90;;;20.30;100.00;101827.84;4167265;28;20048;-75
2023/07/10 07:42:58;;;;;;;10.40;2.05;;;20.50;99.90;;;20.42;100.00;101828.16;4167568;28;20025;-75
2023/07/10 07:44:59;;;;;;;8.00;2.97;;;20.60;99.90;;;20.50;100.00;101829.84;4168706;28;20500;-75
2023/07/10 07:47:00;;;;;;;7.68;2.15;;;20.70;99.90;;;20.60;100.00;101833.84;4167293;28;20033;-75
2023/07/10 07:49:01;;;;;;;5.43;1.40;;;20.70;99.90;;;20.73;100.00;101833.94;4167229;28;20036;-76
2023/07/10 07:51:07;;;;;;;6.82;2.10;;;20.90;99.90;;;20.85;100.00;101836.91;4167132;28;20025;-75
2023/07/10 07:53:08;;;;;;;7.40;2.10;;;21.00;99.90;;;20.85;100.00;101827.00;4156303;28;20052;-76
2023/07/10 07:55:09;;;;;;;5.90;2.08;;;21.00;99.90;;;20.96;100.00;101831.00;4168227;28;20026;-75
2023/07/10 07:57:10;;;;;;;6.82;1.80;;;21.20;99.90;;;21.04;100.00;101830.84;4150921;28;20112;-75
2023/07/10 07:59:11;;;;;;;4.40;1.83;;;21.20;99.90;;;21.19;100.00;101830.72;4167047;28;20071;-75
2023/07/10 08:01:12;;;;;;;4.22;1.70;;;21.30;99.90;;;21.31;100.00;101826.44;4167331;28;20072;-75
2023/07/10 08:03:13;;;;;;;7.70;2.20;;;21.40;99.90;;;21.47;100.00;101828.81;4168712;28;20030;-75
2023/07/10 08:05:13;;;;;;;8.15;2.15;;;21.60;99.90;;;21.61;100.00;101835.03;4169305;28;20152;-75
2023/07/10 08:07:14;;;;;;;7.30;2.25;;;21.70;99.90;;;21.69;100.00;101834.84;4171799;28;20090;-75
2023/07/10 08:09:16;;;;;;;8.98;2.10;;;21.80;99.90;;;21.75;100.00;101829.50;4171706;28;20021;-75
2023/07/10 08:11:17;;;;;;;6.25;1.75;;;21.90;99.90;;;21.78;100.00;101834.47;4170585;28;20064;-76
2023/07/10 08:13:19;;;;;;;6.82;1.88;;;21.90;99.90;;;21.87;100.00;101827.03;4154054;28;20414;-75
2023/07/10 08:15:20;;;;;;;10.13;2.03;;;22.00;99.90;;;22.00;100.00;101829.78;4167459;28;20033;-75
2023/07/10 08:17:21;;;;;;;5.18;1.30;;;22.20;99.90;;;22.10;100.00;101826.72;4171736;28;20021;-75
2023/07/10 08:19:22;;;;;;;3.65;1.08;;;22.30;99.90;;;22.31;100.00;101834.59;4170507;28;20033;-75
2023/07/10 08:21:23;;;;;;;6.65;1.58;;;22.40;99.90;;;22.57;100.00;101839.94;4169900;28;20112;-75
2023/07/10 08:23:24;;;;;;;7.80;2.05;;;22.70;99.90;;;22.64;100.00;101830.00;4171494;28;20061;-76